Time;durP1;ratioP1;P1;durP2;ratioP2;P2;SDS_P1;SDS_P2;PMS_P1;PMS_P2;Temp;Humidity;BMP_temperature;BMP_pressure;BME280_temperature;BME280_humidity;BME280_pressure;Samples;Min_cycle;Max_cycle;Signal;HPM_P1;HPM_P2
2023/09/12 00:01:07;;;;;;;;;9.33;9.00;;;;;24.57;70.64;100515.38;4848851;29;45395;-84
2023/09/12 00:03:35;;;;;;;;;14.00;12.33;;;;;24.57;70.81;100522.66;4849432;29;45303;-84
2023/09/12 00:06:02;;;;;;;;;10.67;9.00;;;;;24.58;70.86;100527.13;4849584;29;45533;-83
2023/09/12 00:08:27;;;;;;;;;9.67;8.67;;;;;24.46;70.78;100531.28;4833321;29;46836;-83
2023/09/12 00:11:49;;;;;;;;;11.67;11.67;;;;;24.62;70.71;100531.47;4833314;29;45415;-82
2023/09/12 00:14:16;;;;;;;;;11.67;11.67;;;;;24.43;71.37;100526.88;4832259;29;45609;-83
2023/09/12 00:16:41;;;;;;;;;14.00;12.00;;;;;24.35;71.57;100523.63;4848225;29;45832;-83
2023/09/12 00:19:07;;;;;;;;;12.33;11.33;;;;;24.37;72.03;100527.16;4834427;29;46723;-82
2023/09/12 00:21:32;;;;;;;;;13.33;13.33;;;;;24.24;72.48;100521.44;4833734;29;44797;-85
2023/09/12 00:24:13;;;;;;;;;9.00;9.00;;;;;24.34;72.42;100521.88;4848702;29;45234;-82
2023/09/12 00:26:39;;;;;;;;;10.33;10.33;;;;;24.30;72.39;100521.13;4832467;29;45492;-83
2023/09/12 00:29:04;;;;;;;;;10.00;10.00;;;;;24.16;72.87;100519.06;4832101;29;47654;-84
2023/09/12 00:31:33;;;;;;;;;12.00;11.33;;;;;24.24;73.32;100526.88;4832857;29;45455;-84
2023/09/12 00:33:59;;;;;;;;;13.00;13.00;;;;;24.05;73.41;100515.94;4851062;29;44855;-83
2023/09/12 00:36:24;;;;;;;;;14.00;12.33;;;;;24.03;73.47;100515.13;4834070;29;45108;-84
2023/09/12 00:38:49;;;;;;;;;10.67;10.67;;;;;24.08;73.30;100526.69;4849550;29;45602;-83
2023/09/12 00:41:17;;;;;;;;;13.00;12.33;;;;;24.12;74.13;100528.31;4833117;29;45282;-83
2023/09/12 00:43:43;;;;;;;;;14.67;13.67;;;;;23.95;73.43;100520.91;4832139;29;44835;-84
2023/09/12 00:46:08;;;;;;;;;15.33;14.00;;;;;23.97;73.98;100523.56;4833175;29;45446;-84
2023/09/12 00:48:35;;;;;;;;;11.33;11.33;;;;;23.99;74.28;100521.66;4833409;29;46848;-83
2023/09/12 00:51:01;;;;;;;;;13.33;12.33;;;;;23.98;74.34;100530.75;4851386;29;44768;-83
2023/09/12 00:53:27;;;;;;;;;15.33;13.67;;;;;23.97;74.05;100515.41;4834884;29;45449;-83
2023/09/12 00:55:57;;;;;;;;;11.67;10.67;;;;;23.97;74.54;100501.81;4835111;29;45433;-82
2023/09/12 00:58:24;;;;;;;;;6.33;6.33;;;;;23.98;74.53;100522.63;4853852;29;45680;-83
2023/09/12 01:00:50;;;;;;;;;17.33;15.33;;;;;23.92;74.92;100520.19;4839038;29;44913;-85
2023/09/12 01:03:15;;;;;;;;;13.33;13.33;;;;;23.77;75.38;100508.16;4841133;29;45310;-84
2023/09/12 01:09:04;;;;;;;;;14.00;14.00;;;;;23.78;76.15;100522.63;4857873;29;44925;-84
2023/09/12 01:11:30;;;;;;;;;15.00;14.00;;;;;23.71;76.76;100516.53;4838840;29;44915;-84
2023/09/12 01:13:55;;;;;;;;;14.67;14.67;;;;;23.66;76.76;100505.88;4856660;29;45500;-84
2023/09/12 01:16:21;;;;;;;;;18.33;17.33;;;;;23.64;77.16;100509.63;4840349;29;45027;-84
2023/09/12 01:18:46;;;;;;;;;9.00;9.00;;;;;23.65;77.21;100508.66;4857063;29;45732;-84
2023/09/12 01:25:11;;;;;;;;;19.33;18.33;;;;;23.86;76.60;100493.28;4855223;29;44786;-83
2023/09/12 01:27:38;;;;;;;;;19.00;17.00;;;;;23.66;77.70;100491.44;4855496;29;44762;-84
2023/09/12 01:30:10;;;;;;;;;18.00;18.00;;;;;23.79;77.12;100497.22;4839184;29;47182;-85
2023/09/12 01:32:37;;;;;;;;;18.33;16.00;;;;;23.67;77.27;100496.81;4839543;29;45109;-85
2023/09/12 01:35:03;;;;;;;;;17.00;17.00;;;;;23.60;78.24;100502.56;4839901;29;45266;-83
2023/09/12 01:37:32;;;;;;;;;22.00;20.00;;;;;23.66;78.16;100508.59;4841539;29;44833;-84
2023/09/12 01:39:58;;;;;;;;;19.67;19.33;;;;;23.56;78.26;100501.81;4859121;29;45367;-84
2023/09/12 01:42:27;;;;;;;;;19.67;17.33;;;;;23.62;78.41;100512.41;4840407;29;44995;-84
2023/09/12 01:44:55;;;;;;;;;25.67;21.67;;;;;23.70;78.45;100515.66;4854889;29;45265;-83
2023/09/12 01:47:22;;;;;;;;;22.67;20.00;;;;;23.62;78.58;100520.53;4839821;29;45306;-86
2023/09/12 01:49:51;;;;;;;;;20.67;20.00;;;;;23.63;78.63;100522.31;4841410;29;47139;-85
2023/09/12 01:52:18;;;;;;;;;17.00;17.00;;;;;23.53;79.19;100516.41;4857934;29;44783;-84
2023/09/12 01:54:44;;;;;;;;;24.00;23.67;;;;;23.52;78.79;100497.47;4841857;29;44869;-84
2023/09/12 01:57:10;;;;;;;;;19.33;19.33;;;;;23.44;79.64;100514.06;4858766;29;44871;-84
2023/09/12 01:59:36;;;;;;;;;22.33;20.67;;;;;23.39;79.74;100510.69;4859220;29;45014;-80
2023/09/12 02:02:03;;;;;;;;;21.33;20.00;;;;;23.44;79.90;100508.66;4859396;29;44885;-83
2023/09/12 02:04:28;;;;;;;;;20.67;20.67;;;;;23.33;80.17;100511.84;4841458;29;44804;-84
2023/09/12 02:06:53;;;;;;;;;23.67;22.33;;;;;23.29;79.97;100510.19;4858024;29;44777;-84
2023/09/12 02:09:19;;;;;;;;;22.33;21.67;;;;;23.32;80.79;100529.03;4841039;29;46939;-84
2023/09/12 02:11:45;;;;;;;;;21.00;19.67;;;;;23.31;80.93;100527.28;4855998;29;44991;-82
2023/09/12 02:14:44;;;;;;;;;24.67;21.00;;;;;23.43;80.32;100517.75;4858191;29;44944;-84
2023/09/12 02:17:10;;;;;;;;;24.33;22.33;;;;;23.21;81.81;100523.22;4857103;29;44919;-83
2023/09/12 02:19:35;;;;;;;;;29.67;28.33;;;;;23.14;80.87;100516.25;4841786;29;47110;-83
2023/09/12 02:22:00;;;;;;;;;27.33;25.67;;;;;23.10;81.34;100517.34;4859409;29;44877;-84
2023/09/12 02:24:26;;;;;;;;;25.00;24.00;;;;;23.01;82.10;100506.84;4841827;29;44828;-83
2023/09/12 02:26:51;;;;;;;;;29.00;25.67;;;;;23.05;82.94;100516.66;4858975;29;44892;-83
2023/09/12 02:29:17;;;;;;;;;26.33;26.33;;;;;22.94;82.68;100515.19;4841093;29;45191;-84
2023/09/12 02:31:43;;;;;;;;;25.33;25.33;;;;;22.94;83.97;100514.31;4841478;29;44855;-83
2023/09/12 02:34:08;;;;;;;;;19.33;17.67;;;;;22.90;83.25;100516.28;4840607;29;44752;-83
2023/09/12 02:36:35;;;;;;;;;23.67;23.33;;;;;22.82;83.77;100510.28;4858811;29;44970;-83
2023/09/12 02:39:00;;;;;;;;;22.00;22.00;;;;;22.82;84.80;100512.13;4857822;29;45574;-84
2023/09/12 02:41:26;;;;;;;;;28.00;25.00;;;;;22.78;83.31;100514.06;4856414;29;44789;-86
2023/09/12 02:43:59;;;;;;;;;24.00;23.00;;;;;22.79;84.46;100515.84;4857032;29;44783;-84
2023/09/12 02:46:24;;;;;;;;;27.67;23.33;;;;;22.84;85.18;100511.09;4853267;29;44899;-83
2023/09/12 02:48:50;;;;;;;;;23.00;23.00;;;;;22.93;84.47;100516.16;4839282;29;46956;-84
2023/09/12 02:51:15;;;;;;;;;28.33;26.33;;;;;22.97;84.51;100515.09;4838349;29;44848;-83
2023/09/12 02:53:40;;;;;;;;;24.00;22.33;;;;;23.00;84.58;100507.78;4840824;29;45027;-83
2023/09/12 02:56:06;;;;;;;;;24.33;22.67;;;;;23.02;84.44;100504.06;4837410;29;45135;-82
2023/09/12 02:58:31;;;;;;;;;21.33;21.33;;;;;23.09;83.89;100499.31;4853796;29;44997;-84
2023/09/12 03:00:56;;;;;;;;;33.00;27.00;;;;;23.01;84.22;100496.00;4837043;29;44890;-84
2023/09/12 03:03:22;;;;;;;;;24.67;23.00;;;;;22.92;84.10;100481.84;4854203;29;45287;-84
2023/09/12 03:05:47;;;;;;;;;25.33;22.67;;;;;22.96;84.49;100497.03;4854269;29;44872;-84
2023/09/12 03:08:13;;;;;;;;;30.33;25.00;;;;;22.97;84.27;100504.25;4856190;29;45219;-84
2023/09/12 03:10:39;;;;;;;;;23.67;22.00;;;;;23.03;84.81;100496.84;4855612;29;44839;-84
2023/09/12 03:13:05;;;;;;;;;24.67;23.00;;;;;22.95;84.62;100498.00;4854886;29;45377;-85
2023/09/12 03:15:35;;;;;;;;;23.33;23.33;;;;;23.04;85.04;100501.31;4853926;29;44791;-83
2023/09/12 03:18:01;;;;;;;;;20.00;18.33;;;;;22.94;84.99;100498.06;4853415;29;45247;-85
2023/09/12 03:20:26;;;;;;;;;26.00;24.00;;;;;22.98;84.70;100505.13;4820857;29;44808;-85
2023/09/12 03:22:52;;;;;;;;;25.67;25.67;;;;;22.93;84.05;100502.59;4822294;29;44774;-84
2023/09/12 03:25:17;;;;;;;;;23.33;23.33;;;;;22.96;84.55;100502.47;4852572;29;44872;-84
2023/09/12 03:27:44;;;;;;;;;27.33;27.00;;;;;23.00;84.55;100515.91;4853741;29;45486;-85
2023/09/12 03:30:10;;;;;;;;;27.33;25.00;;;;;23.02;84.70;100509.50;4854976;29;44816;-85
2023/09/12 03:32:35;;;;;;;;;22.00;22.00;;;;;23.02;84.76;100517.63;4854573;29;45381;-85
2023/09/12 03:35:01;;;;;;;;;25.67;25.33;;;;;23.02;84.28;100516.75;4838097;29;45426;-85
2023/09/12 03:37:28;;;;;;;;;18.00;18.00;;;;;23.01;84.25;100517.69;4854381;29;45414;-84
2023/09/12 03:39:54;;;;;;;;;21.67;21.33;;;;;23.04;84.63;100525.72;4837528;29;44723;-83
2023/09/12 03:42:19;;;;;;;;;25.00;21.67;;;;;23.06;84.14;100537.38;4837172;29;45330;-83
2023/09/12 03:44:44;;;;;;;;;21.00;21.00;;;;;23.02;84.23;100533.03;4854921;29;44842;-84
2023/09/12 03:47:10;;;;;;;;;23.00;21.67;;;;;23.04;84.35;100533.84;4855520;29;45323;-84
2023/09/12 03:49:35;;;;;;;;;19.33;18.67;;;;;23.08;84.55;100528.25;4852841;29;44726;-84
2023/09/12 03:52:02;;;;;;;;;21.33;18.00;;;;;23.13;84.33;100536.22;4852276;29;44793;-85
2023/09/12 03:54:28;;;;;;;;;22.33;19.33;;;;;23.07;83.03;100512.94;4852615;29;44888;-84
2023/09/12 03:56:53;;;;;;;;;25.67;23.67;;;;;23.04;83.49;100526.59;4852615;29;45082;-84
2023/09/12 03:59:19;;;;;;;;;24.00;22.00;;;;;23.09;83.44;100524.59;4835174;29;44906;-84
2023/09/12 04:01:44;;;;;;;;;24.67;24.00;;;;;23.10;83.11;100530.91;4852618;29;45141;-84
2023/09/12 04:04:11;;;;;;;;;24.67;21.67;;;;;23.15;83.71;100535.19;4852763;29;44823;-85
2023/09/12 04:06:36;;;;;;;;;26.67;24.00;;;;;23.11;83.91;100538.97;4839122;29;47172;-85
2023/09/12 04:09:02;;;;;;;;;22.67;22.67;;;;;23.12;84.07;100537.13;4855227;29;44795;-84
2023/09/12 04:11:34;;;;;;;;;20.67;19.67;;;;;23.23;83.68;100545.72;4838053;29;44839;-83
2023/09/12 04:13:59;;;;;;;;;20.67;20.67;;;;;23.12;83.64;100537.13;4854638;29;44883;-86
2023/09/12 04:16:25;;;;;;;;;24.33;21.67;;;;;23.11;83.26;100540.81;4854153;29;45422;-84
2023/09/12 04:18:50;;;;;;;;;22.00;20.33;;;;;23.07;83.78;100533.75;4854673;29;44904;-84
2023/09/12 04:21:17;;;;;;;;;18.00;18.00;;;;;23.19;83.39;100535.03;4855263;29;45365;-84
2023/09/12 04:23:42;;;;;;;;;27.00;22.67;;;;;23.12;83.30;100543.44;4839351;29;44995;-84
2023/09/12 04:26:08;;;;;;;;;20.33;20.33;;;;;23.12;83.13;100526.28;4836396;29;46971;-84
2023/09/12 04:28:33;;;;;;;;;25.67;24.00;;;;;23.10;83.09;100541.75;4852577;29;44686;-84
2023/09/12 04:31:03;;;;;;;;;20.33;19.00;;;;;23.15;83.02;100527.06;4854497;29;45384;-82
2023/09/12 04:33:28;;;;;;;;;20.00;20.00;;;;;23.01;83.21;100536.69;4842121;29;44885;-85
2023/09/12 04:36:01;;;;;;;;;20.00;18.00;;;;;23.17;82.70;100549.56;4861019;29;45083;-85
2023/09/12 04:38:26;;;;;;;;;19.00;19.00;;;;;23.04;82.00;100542.88;4844872;29;44923;-85
2023/09/12 04:41:05;;;;;;;;;19.33;18.67;;;;;23.15;82.49;100545.16;4861747;29;44909;-85
2023/09/12 04:43:32;;;;;;;;;18.33;18.33;;;;;23.05;82.97;100539.22;4861099;29;44793;-84
2023/09/12 04:45:57;;;;;;;;;20.67;20.00;;;;;23.08;82.96;100546.34;4862166;29;45392;-84
2023/09/12 04:48:23;;;;;;;;;18.00;18.00;;;;;23.09;82.65;100550.84;4845816;29;44746;-84
2023/09/12 04:50:49;;;;;;;;;19.67;15.00;;;;;23.04;83.01;100559.16;4858758;29;44777;-84
2023/09/12 04:53:16;;;;;;;;;20.33;19.33;;;;;23.05;82.40;100554.63;4860791;29;44767;-85
2023/09/12 04:55:41;;;;;;;;;19.00;18.00;;;;;23.02;81.68;100554.75;4859688;29;45312;-85
2023/09/12 04:58:07;;;;;;;;;22.67;21.00;;;;;23.02;82.48;100552.91;4843414;29;44850;-84
2023/09/12 05:00:33;;;;;;;;;23.67;23.00;;;;;23.05;82.28;100560.06;4843747;29;44890;-84
2023/09/12 05:03:01;;;;;;;;;20.33;18.00;;;;;22.97;81.84;100561.19;4861139;29;44873;-84
2023/09/12 05:05:26;;;;;;;;;19.00;18.33;;;;;22.92;82.11;100554.19;4844667;29;45214;-85
2023/09/12 05:07:51;;;;;;;;;21.67;21.67;;;;;22.90;81.39;100548.81;4860359;29;44729;-85
2023/09/12 05:10:18;;;;;;;;;16.00;16.00;;;;;22.88;82.71;100550.72;4859988;29;44942;-84
2023/09/12 05:12:44;;;;;;;;;20.67;18.00;;;;;22.91;82.53;100558.72;4845447;29;45087;-85
2023/09/12 05:15:11;;;;;;;;;16.33;16.33;;;;;22.88;82.38;100550.72;4846568;29;45941;-83
2023/09/12 05:17:37;;;;;;;;;24.33;22.67;;;;;22.91;82.20;100552.44;4843871;29;44818;-83
2023/09/12 05:20:06;;;;;;;;;22.00;21.00;;;;;22.96;82.39;100561.25;4859394;29;44806;-85
2023/09/12 05:22:31;;;;;;;;;22.33;20.00;;;;;22.91;82.47;100564.16;4858461;29;44785;-84
2023/09/12 05:24:58;;;;;;;;;22.33;21.00;;;;;22.95;82.69;100573.94;4840905;29;46541;-84
2023/09/12 05:27:24;;;;;;;;;21.33;20.33;;;;;22.87;82.45;100562.50;4861074;29;44694;-84
2023/09/12 05:29:49;;;;;;;;;20.00;20.00;;;;;22.93;82.72;100570.41;4862524;29;44965;-83
2023/09/12 05:32:16;;;;;;;;;23.00;21.67;;;;;23.07;82.30;100569.00;4863928;29;44913;-84
2023/09/12 05:34:45;;;;;;;;;23.00;21.67;;;;;23.02;82.21;100562.88;4846892;29;47080;-85
2023/09/12 05:37:13;;;;;;;;;21.00;19.33;;;;;23.01;82.15;100564.69;4844295;29;44915;-83
2023/09/12 05:39:41;;;;;;;;;21.67;19.00;;;;;23.11;81.80;100565.22;4846721;29;44860;-84
2023/09/12 05:42:07;;;;;;;;;22.33;20.00;;;;;23.03;82.47;100561.94;4843094;29;44830;-84
2023/09/12 05:44:32;;;;;;;;;21.33;21.33;;;;;23.06;82.41;100561.81;4857387;29;45045;-83
2023/09/12 05:46:58;;;;;;;;;24.33;21.67;;;;;23.08;81.78;100560.78;4857747;29;45646;-84
2023/09/12 05:49:23;;;;;;;;;22.00;20.33;;;;;23.07;81.74;100558.16;4843590;29;44970;-86
2023/09/12 05:52:05;;;;;;;;;19.33;18.00;;;;;23.20;80.98;100556.69;4847501;29;44840;-88
2023/09/12 05:54:31;;;;;;;;;20.33;19.33;;;;;23.14;80.58;100571.38;4851867;29;45032;-89
2023/09/12 05:56:57;;;;;;;;;17.67;17.00;;;;;22.93;80.97;100527.00;4850277;29;44772;-86
2023/09/12 05:59:28;;;;;;;;;16.33;16.33;;;;;23.29;80.78;100559.03;4851244;29;44761;-88
2023/09/12 06:01:55;;;;;;;;;17.67;17.00;;;;;23.21;80.89;100561.19;4864578;29;45621;-89
2023/09/12 06:04:24;;;;;;;;;25.67;22.33;;;;;23.30;80.63;100560.78;4861674;29;45430;-88
2023/09/12 06:06:50;;;;;;;;;26.33;22.00;;;;;23.15;80.02;100551.47;4845020;29;44816;-88
2023/09/12 06:09:15;;;;;;;;;21.00;20.00;;;;;23.04;80.55;100553.72;4845852;29;44940;-89
2023/09/12 06:11:41;;;;;;;;;19.67;17.67;;;;;23.16;80.89;100593.03;4860253;29;44819;-88
2023/09/12 06:14:15;;;;;;;;;19.67;19.33;;;;;23.19;80.82;100586.59;4846119;29;44898;-88
2023/09/12 06:16:42;;;;;;;;;20.33;20.33;;;;;23.04;81.07;100563.69;4853027;29;44823;-87
2023/09/12 06:29:28;;;;;;;;;20.33;18.67;;;;;23.02;80.69;100577.31;4798235;27;44886;-88
2023/09/12 06:34:30;;;;;;;;;19.33;17.67;;;;;22.91;80.55;100544.31;5603329;23;46914;-88
2023/09/12 06:36:58;;;;;;;;;25.33;21.33;;;;;23.08;80.70;100581.63;4853553;29;45434;-88
2023/09/12 06:39:26;;;;;;;;;25.00;23.00;;;;;22.95;81.02;100560.38;4852473;29;44801;-90
2023/09/12 06:41:52;;;;;;;;;22.67;20.00;;;;;23.03;80.62;100584.53;4853017;29;44853;-90
2023/09/12 06:44:17;;;;;;;;;23.33;21.00;;;;;23.04;81.13;100577.25;4849587;29;47181;-88
2023/09/12 06:49:32;;;;;;;;;20.00;20.00;;;;;23.06;80.05;100569.94;4931955;23;44895;-87
2023/09/12 06:51:58;;;;;;;;;20.00;17.67;;;;;23.14;79.75;100565.09;4851122;29;44902;-87
2023/09/12 06:54:23;;;;;;;;;23.00;21.67;;;;;23.26;79.88;100569.13;4851246;29;45094;-86
2023/09/12 06:56:49;;;;;;;;;21.67;18.33;;;;;23.34;79.52;100591.41;4850314;29;44774;-87
2023/09/12 07:32:18;;;;;;;;;;;;;;;;;;;;;
2023/09/12 07:47:59;;;;;;;;;25.67;23.00;;;;;23.41;79.42;100602.88;4875391;23;46028;-83
2023/09/12 07:50:24;;;;;;;;;24.00;23.67;;;;;23.18;79.24;100583.00;4841669;29;44855;-83
2023/09/12 07:54:18;;;;;;;;;;;;;;;;;;;;;
2023/09/12 11:01:49;;;;;;;;;11.00;11.00;;;;;21.63;100.00;100661.81;5373334;23;45843;-84
2023/09/12 11:12:49;;;;;;;;;17.00;15.33;;;;;21.60;100.00;100676.34;5485753;23;46915;-85
2023/09/12 11:15:15;;;;;;;;;15.00;15.00;;;;;21.41;100.00;100665.22;4837829;29;46765;-81
2023/09/12 11:18:07;;;;;;;;;18.33;17.00;;;;;21.68;100.00;100687.81;4835947;29;44802;-81
2023/09/12 11:20:58;;;;;;;;;23.00;18.33;;;;;21.69;100.00;100683.25;4825212;29;44766;-80
2023/09/12 11:27:25;;;;;;;;;20.00;20.00;;;;;21.74;100.00;100674.06;4841072;29;45830;-81
2023/09/12 11:29:51;;;;;;;;;21.67;19.00;;;;;21.67;100.00;100683.34;4765149;29;45864;-80
2023/09/12 11:32:45;;;;;;;;;24.00;20.67;;;;;21.85;100.00;100684.53;4769900;29;44929;-82
2023/09/12 11:35:13;;;;;;;;;19.33;17.67;;;;;21.74;100.00;100681.31;4768932;29;45406;-81
2023/09/12 11:37:38;;;;;;;;;17.67;17.67;;;;;21.80;100.00;100686.50;4786142;29;45275;-83
2023/09/12 11:40:26;;;;;;;;;19.33;18.00;;;;;22.02;100.00;100688.50;4785239;29;44745;-81
2023/09/12 11:42:57;;;;;;;;;16.67;15.67;;;;;22.11;100.00;100686.34;4771850;29;45074;-83
2023/09/12 11:45:32;;;;;;;;;13.67;13.33;;;;;22.09;100.00;100676.50;4737142;29;44926;-82
2023/09/12 11:48:26;;;;;;;;;11.00;11.00;;;;;22.20;100.00;100684.25;4739794;29;47091;-83
2023/09/12 11:51:06;;;;;;;;;12.00;12.00;;;;;22.23;100.00;100684.16;4734068;29;45487;-84
2023/09/12 11:53:36;;;;;;;;;14.67;14.67;;;;;22.13;100.00;100651.09;4736954;29;44894;-84
2023/09/12 11:56:08;;;;;;;;;16.33;15.33;;;;;22.10;100.00;100640.38;4749606;29;44840;-83
2023/09/12 12:21:47;;;;;;;;;17.67;12.67;;;;;22.66;100.00;100617.56;4880372;29;45935;-83
2023/09/12 12:24:17;;;;;;;;;11.00;10.67;;;;;23.04;100.00;100616.09;4849431;29;45378;-83
2023/09/12 12:27:17;;;;;;;;;;;;;;;;;;;;;
2023/09/12 12:40:16;;;;;;;;;11.33;10.33;;;;;23.55;100.00;100630.31;4938089;23;45235;-82
2023/09/12 13:30:01;;;;;;;;;15.00;15.00;;;;;23.94;100.00;100681.25;4730896;23;46037;-82
2023/09/12 13:47:21;;;;;;;;;;;;;;;;;;;;;
2023/09/12 13:50:15;;;;;;;;;15.33;12.33;;;;;23.66;100.00;100649.78;4798314;29;45533;-83
2023/09/12 13:53:14;;;;;;;;;14.33;12.33;;;;;23.86;100.00;100673.44;4793601;29;44905;-84
2023/09/12 13:55:42;;;;;;;;;10.33;9.00;;;;;23.55;100.00;100635.75;4771435;29;44842;-85
2023/09/12 14:11:12;;;;;;;;;9.00;8.00;;;;;24.00;100.00;100628.50;5222070;23;47018;-84
2023/09/12 14:56:01;;;;;;;;;14.00;14.00;;;;;23.76;100.00;100672.00;5694429;23;46885;-84
2023/09/12 14:59:13;;;;;;;;;15.33;15.00;;;;;23.88;100.00;100684.22;4865298;29;44769;-81
2023/09/12 15:02:15;;;;;;;;;;;;;;;;;;;;;
2023/09/12 15:08:20;;;;;;;;;7.67;7.67;;;;;23.81;100.00;100680.00;5202021;23;46214;-83
2023/09/12 15:20:14;;;;;;;;;11.00;9.00;;;;;23.81;100.00;100663.69;5056885;23;47630;-83
2023/09/12 15:22:54;;;;;;;;;10.67;10.00;;;;;23.70;100.00;100651.41;4848819;29;44743;-82
2023/09/12 15:25:22;;;;;;;;;10.67;10.33;;;;;23.86;100.00;100675.25;4842683;29;45677;-83
2023/09/12 15:27:48;;;;;;;;;9.33;9.33;;;;;23.83;100.00;100657.25;4835944;29;44861;-83
2023/09/12 15:40:14;;;;;;;;;12.33;10.67;;;;;23.99;100.00;100671.06;4826258;29;44634;-83
2023/09/12 15:42:45;;;;;;;;;16.00;14.33;;;;;23.74;100.00;100641.31;4826273;29;47469;-82
2023/09/12 15:45:11;;;;;;;;;18.00;17.00;;;;;23.63;100.00;100641.78;4826665;29;44837;-85
2023/09/12 15:48:04;;;;;;;;;14.33;13.67;;;;;23.71;100.00;100646.88;4988285;23;44879;-85
2023/09/12 15:50:44;;;;;;;;;18.00;17.00;;;;;23.56;100.00;100648.41;4849314;29;45251;-84
2023/09/12 15:53:13;;;;;;;;;17.00;15.00;;;;;23.72;100.00;100667.66;4829410;29;44993;-84
2023/09/12 16:03:40;;;;;;;;;17.67;16.33;;;;;23.53;100.00;100648.50;5605733;23;46295;-83
2023/09/12 16:06:27;;;;;;;;;15.67;15.67;;;;;23.66;100.00;100671.50;4845377;29;44863;-83
2023/09/12 16:08:59;;;;;;;;;11.67;11.67;;;;;23.47;100.00;100627.97;4815950;29;44825;-81
2023/09/12 16:11:33;;;;;;;;;13.00;13.00;;;;;23.53;100.00;100662.09;4861276;29;44883;-81
2023/09/12 16:14:46;;;;;;;;;12.33;12.33;;;;;23.64;100.00;100659.81;4845896;29;46912;-81
2023/09/12 16:20:00;;;;;;;;;13.33;11.67;;;;;23.48;100.00;100658.69;4942104;23;46171;-83
2023/09/12 16:22:28;;;;;;;;;11.67;11.67;;;;;23.41;100.00;100655.34;4842524;29;44788;-82
2023/09/12 16:24:55;;;;;;;;;13.67;13.67;;;;;23.44;100.00;100652.50;4842469;29;45716;-81
2023/09/12 16:27:38;;;;;;;;;8.67;8.67;;;;;23.58;100.00;100651.06;4844703;29;44870;-82
2023/09/12 17:32:09;;;;;;;;;14.00;14.00;;;;;23.33;100.00;100652.06;5524613;23;46774;-84
2023/09/12 19:57:01;;;;;;;;;16.00;14.00;;;;;22.00;100.00;100785.16;5849214;23;46575;31
2023/09/12 19:59:35;;;;;;;;;13.33;11.67;;;;;21.86;100.00;100783.78;4849459;29;47040;-85
2023/09/12 20:02:01;;;;;;;;;13.33;13.00;;;;;21.72;100.00;100781.50;4836099;29;45870;-84
2023/09/12 20:04:29;;;;;;;;;13.67;12.67;;;;;21.76;100.00;100790.41;4837165;29;44750;-84
2023/09/12 20:07:45;;;;;;;;;13.00;13.00;;;;;21.92;100.00;100793.53;4852139;29;44826;-85
2023/09/12 20:10:11;;;;;;;;;16.00;16.00;;;;;21.74;100.00;100801.28;4852150;29;45632;-85
2023/09/12 20:12:37;;;;;;;;;14.67;14.00;;;;;21.71;100.00;100798.69;4852028;29;45833;-84
2023/09/12 20:15:03;;;;;;;;;14.00;14.00;;;;;21.60;100.00;100787.31;4838156;29;45446;-85
2023/09/12 20:17:30;;;;;;;;;14.00;14.00;;;;;21.78;100.00;100802.09;4854940;29;45366;-85
2023/09/12 20:19:55;;;;;;;;;15.00;13.00;;;;;21.67;100.00;100804.22;4836895;29;47204;-86
2023/09/12 20:22:21;;;;;;;;;17.33;17.33;;;;;21.70;100.00;100815.84;4851852;29;45485;-84
2023/09/12 20:24:46;;;;;;;;;15.67;15.67;;;;;21.64;100.00;100802.50;4850099;29;44898;-84
2023/09/12 20:27:13;;;;;;;;;16.00;14.00;;;;;21.62;100.00;100798.97;4852886;29;45230;-84
2023/09/12 20:29:38;;;;;;;;;18.00;16.00;;;;;21.67;100.00;100805.13;4852249;29;47155;-85
2023/09/12 20:32:05;;;;;;;;;15.00;13.33;;;;;21.76;100.00;100809.38;4852098;29;45303;-83
2023/09/12 20:34:32;;;;;;;;;16.00;16.00;;;;;21.63;100.00;100808.84;4853140;29;45344;-83
2023/09/12 20:36:57;;;;;;;;;17.33;15.33;;;;;21.54;100.00;100792.91;4837357;29;45553;-84
2023/09/12 20:39:27;;;;;;;;;14.00;14.00;;;;;21.69;100.00;100796.94;4852973;29;46273;-84
2023/09/12 20:41:54;;;;;;;;;13.67;12.33;;;;;21.66;100.00;100799.75;4835875;29;45466;-85
2023/09/12 20:44:19;;;;;;;;;15.67;15.67;;;;;21.59;100.00;100796.34;4853318;29;45672;-85
2023/09/12 20:46:46;;;;;;;;;13.00;13.00;;;;;21.64;100.00;100805.22;4854063;29;44919;-83
2023/09/12 20:49:13;;;;;;;;;14.67;14.33;;;;;21.62;100.00;100801.69;4855355;29;45310;-86
2023/09/12 20:51:42;;;;;;;;;15.33;14.33;;;;;21.60;100.00;100800.84;4870731;29;45257;-82
2023/09/12 20:54:10;;;;;;;;;19.00;15.67;;;;;21.63;100.00;100802.56;4854765;29;44924;-81
2023/09/12 20:56:41;;;;;;;;;15.00;13.00;;;;;21.69;100.00;100807.78;4855661;29;44858;-84
2023/09/12 20:59:07;;;;;;;;;18.67;14.00;;;;;21.63;100.00;100807.97;4870657;29;46504;-83
2023/09/12 21:01:33;;;;;;;;;15.00;15.00;;;;;21.61;100.00;100808.00;4838291;29;44758;-82
2023/09/12 21:03:59;;;;;;;;;16.33;15.67;;;;;21.65;100.00;100812.38;4853996;29;44967;-83
2023/09/12 21:06:25;;;;;;;;;19.33;16.67;;;;;21.66;100.00;100818.72;4853782;29;44876;-80
2023/09/12 21:11:28;;;;;;;;;21.33;21.33;;;;;21.46;100.00;100793.13;5321514;23;46154;-81
2023/09/12 21:13:53;;;;;;;;;18.67;18.67;;;;;21.53;100.00;100813.69;4855600;29;45212;-82
2023/09/12 21:16:19;;;;;;;;;22.67;21.67;;;;;21.54;100.00;100811.84;4858119;29;44797;-83
2023/09/12 21:18:44;;;;;;;;;19.00;17.67;;;;;21.49;100.00;100806.59;4857512;29;46041;-83
2023/09/12 21:21:10;;;;;;;;;17.33;16.33;;;;;21.44;100.00;100802.22;4874562;29;44702;-81
2023/09/12 21:23:38;;;;;;;;;19.00;18.00;;;;;21.58;100.00;100810.81;4857752;29;44764;-81
2023/09/12 21:26:03;;;;;;;;;19.67;16.33;;;;;21.41;100.00;100794.16;4873628;29;44753;-81
2023/09/12 21:28:29;;;;;;;;;19.67;18.00;;;;;21.45;100.00;100804.91;4857833;29;46765;-81
2023/09/12 21:30:54;;;;;;;;;22.00;17.33;;;;;21.42;100.00;100804.06;4833985;29;45406;-83
2023/09/12 21:33:20;;;;;;;;;22.33;22.33;;;;;21.55;100.00;100822.63;4831745;29;45380;-84
2023/09/12 21:35:45;;;;;;;;;22.33;18.33;;;;;21.52;100.00;100816.41;4847862;29;45425;-83
2023/09/12 21:38:13;;;;;;;;;18.00;17.00;;;;;21.62;100.00;100820.63;4831694;29;47190;-83
2023/09/12 21:40:39;;;;;;;;;24.33;20.00;;;;;21.43;100.00;100805.84;4831895;29;45412;-84
2023/09/12 21:43:04;;;;;;;;;18.33;18.33;;;;;21.45;100.00;100813.03;4848087;29;45377;-84
2023/09/12 21:45:31;;;;;;;;;23.67;22.67;;;;;21.49;100.00;100827.31;4848939;29;45338;-84
2023/09/12 21:47:56;;;;;;;;;20.00;17.00;;;;;21.45;100.00;100820.22;4832023;29;47448;-85
2023/09/12 21:50:22;;;;;;;;;19.00;19.00;;;;;21.47;100.00;100829.19;4854365;29;45284;-83
2023/09/12 21:52:47;;;;;;;;;22.00;22.00;;;;;21.40;100.00;100825.75;4858185;29;44769;-82
2023/09/12 21:55:12;;;;;;;;;20.33;20.00;;;;;21.47;100.00;100831.88;4874653;29;44843;-80
2023/09/12 21:57:38;;;;;;;;;22.33;20.33;;;;;21.53;100.00;100834.41;4858233;29;47075;-82
2023/09/12 22:00:18;;;;;;;;;20.67;20.67;;;;;21.62;100.00;100836.84;4857171;29;44692;-82
2023/09/12 22:02:43;;;;;;;;;21.67;21.67;;;;;21.62;100.00;100839.56;4874900;29;44935;-83
2023/09/12 22:05:10;;;;;;;;;21.33;20.00;;;;;21.72;100.00;100829.34;4874444;29;45134;-84
2023/09/12 22:07:38;;;;;;;;;19.33;19.33;;;;;21.69;100.00;100819.50;4874488;29;45073;-83
2023/09/12 22:10:04;;;;;;;;;16.67;16.67;;;;;21.61;100.00;100832.38;4873258;29;44918;-83
2023/09/12 22:12:29;;;;;;;;;22.00;20.33;;;;;21.60;100.00;100825.19;4872782;29;44891;-83
2023/09/12 22:14:55;;;;;;;;;22.33;21.00;;;;;21.61;100.00;100820.66;4873957;29;44758;-81
2023/09/12 22:38:04;;;;;;;;;21.00;19.67;;;;;21.84;100.00;100847.03;5021643;23;46352;-82
2023/09/12 22:40:31;;;;;;;;;24.00;22.00;;;;;21.74;100.00;100832.91;4838030;29;44848;-83
2023/09/12 22:42:56;;;;;;;;;21.00;21.00;;;;;21.77;100.00;100849.94;4853658;29;44845;-81